White Rock, Texas
Current Conditions -  °F | °C
As of 1:55 AM on Monday 22 Dec 2014 (Local Time) from KOCH Reporting Station
Overcast Overcast  
Wind Chill: 50°   Ceiling: 600
Heat Index: 50°   Visibility: 7mi
Dew Point: 46°   Wind: 10mph
Humidity: 87%   Direction: 160°SSE
Pressure: 29.82"   Gusts: NA
Location:  31.516°N, 94.1687°W
Report Text: KOCH 220755Z AUTO 16009KT 7SM OVC006 10/08 A2982 RMK AO1
Loading
Personal Weather Stations






























Interactive Weather Map New forecast layout! Learn more

10-Day Weather Forecast

Advertisements
Track Severe Weather on mobile